sensor_id;sensor_type;location;lat;lon;timestamp;P1;durP1;ratioP1;P2;durP2;ratioP2
11541;SDS011;5827;49.482;7.716;2023-02-01T00:00:23;6.70;;;5.60;;
11541;SDS011;5827;49.482;7.716;2023-02-01T00:02:24;5.93;;;5.07;;
11541;SDS011;5827;49.482;7.716;2023-02-01T00:04:27;7.73;;;5.10;;
11541;SDS011;5827;49.482;7.716;2023-02-01T00:06:31;6.10;;;5.07;;
11541;SDS011;5827;49.482;7.716;2023-02-01T00:08:32;9.23;;;5.10;;
11541;SDS011;5827;49.482;7.716;2023-02-01T00:10:35;7.63;;;4.60;;
11541;SDS011;5827;49.482;7.716;2023-02-01T00:12:36;6.70;;;4.63;;
11541;SDS011;5827;49.482;7.716;2023-02-01T00:14:38;5.20;;;4.70;;
11541;SDS011;5827;49.482;7.716;2023-02-01T00:16:39;5.37;;;4.43;;
11541;SDS011;5827;49.482;7.716;2023-02-01T00:18:41;6.50;;;4.93;;
11541;SDS011;5827;49.482;7.716;2023-02-01T00:20:46;8.53;;;4.83;;
11541;SDS011;5827;49.482;7.716;2023-02-01T00:22:47;6.33;;;4.70;;
11541;SDS011;5827;49.482;7.716;2023-02-01T00:24:49;6.00;;;4.50;;
11541;SDS011;5827;49.482;7.716;2023-02-01T00:26:50;5.60;;;4.30;;
11541;SDS011;5827;49.482;7.716;2023-02-01T00:28:52;5.80;;;4.50;;
11541;SDS011;5827;49.482;7.716;2023-02-01T00:30:57;7.23;;;4.40;;
11541;SDS011;5827;49.482;7.716;2023-02-01T00:32:59;9.73;;;4.73;;
11541;SDS011;5827;49.482;7.716;2023-02-01T00:35:00;6.20;;;4.30;;
11541;SDS011;5827;49.482;7.716;2023-02-01T00:37:03;7.33;;;4.27;;
11541;SDS011;5827;49.482;7.716;2023-02-01T00:39:05;7.83;;;4.60;;
11541;SDS011;5827;49.482;7.716;2023-02-01T00:41:07;6.17;;;4.83;;
11541;SDS011;5827;49.482;7.716;2023-02-01T00:43:10;6.03;;;4.60;;
11541;SDS011;5827;49.482;7.716;2023-02-01T00:45:12;7.63;;;5.23;;
11541;SDS011;5827;49.482;7.716;2023-02-01T00:47:14;8.10;;;4.83;;
11541;SDS011;5827;49.482;7.716;2023-02-01T00:49:15;7.53;;;4.67;;
11541;SDS011;5827;49.482;7.716;2023-02-01T00:51:18;10.77;;;5.27;;
11541;SDS011;5827;49.482;7.716;2023-02-01T00:53:22;7.30;;;4.40;;
11541;SDS011;5827;49.482;7.716;2023-02-01T00:55:23;6.37;;;5.00;;
11541;SDS011;5827;49.482;7.716;2023-02-01T00:57:25;7.77;;;4.90;;
11541;SDS011;5827;49.482;7.716;2023-02-01T00:59:26;8.63;;;4.80;;
11541;SDS011;5827;49.482;7.716;2023-02-01T01:01:29;9.03;;;5.60;;
11541;SDS011;5827;49.482;7.716;2023-02-01T01:03:31;8.33;;;5.43;;
11541;SDS011;5827;49.482;7.716;2023-02-01T01:05:34;10.43;;;6.00;;
11541;SDS011;5827;49.482;7.716;2023-02-01T01:07:35;7.87;;;5.37;;
11541;SDS011;5827;49.482;7.716;2023-02-01T01:09:38;7.73;;;5.30;;
11541;SDS011;5827;49.482;7.716;2023-02-01T01:11:40;10.60;;;5.23;;
11541;SDS011;5827;49.482;7.716;2023-02-01T01:13:41;7.97;;;4.90;;
11541;SDS011;5827;49.482;7.716;2023-02-01T01:15:43;8.83;;;4.93;;
11541;SDS011;5827;49.482;7.716;2023-02-01T01:17:45;7.43;;;4.60;;
11541;SDS011;5827;49.482;7.716;2023-02-01T01:19:47;7.63;;;5.07;;
11541;SDS011;5827;49.482;7.716;2023-02-01T01:21:48;6.53;;;4.20;;
11541;SDS011;5827;49.482;7.716;2023-02-01T01:23:50;7.70;;;4.67;;
11541;SDS011;5827;49.482;7.716;2023-02-01T01:25:53;8.87;;;5.20;;
11541;SDS011;5827;49.482;7.716;2023-02-01T01:27:55;7.27;;;5.20;;
11541;SDS011;5827;49.482;7.716;2023-02-01T01:29:56;8.17;;;5.50;;
11541;SDS011;5827;49.482;7.716;2023-02-01T01:31:58;8.57;;;5.40;;
11541;SDS011;5827;49.482;7.716;2023-02-01T01:34:00;6.77;;;5.27;;
11541;SDS011;5827;49.482;7.716;2023-02-01T01:36:01;7.57;;;5.00;;
11541;SDS011;5827;49.482;7.716;2023-02-01T01:38:05;10.07;;;5.10;;
11541;SDS011;5827;49.482;7.716;2023-02-01T01:40:07;7.97;;;5.57;;
11541;SDS011;5827;49.482;7.716;2023-02-01T01:42:12;11.33;;;5.57;;
11541;SDS011;5827;49.482;7.716;2023-02-01T01:46:52;8.47;;;6.00;;
11541;SDS011;5827;49.482;7.716;2023-02-01T01:48:56;10.20;;;6.20;;
11541;SDS011;5827;49.482;7.716;2023-02-01T01:51:03;7.73;;;5.53;;
11541;SDS011;5827;49.482;7.716;2023-02-01T01:53:10;7.73;;;6.33;;
11541;SDS011;5827;49.482;7.716;2023-02-01T01:55:16;9.93;;;6.33;;
11541;SDS011;5827;49.482;7.716;2023-02-01T01:57:21;10.77;;;7.00;;
11541;SDS011;5827;49.482;7.716;2023-02-01T01:59:26;9.83;;;6.80;;
11541;SDS011;5827;49.482;7.716;2023-02-01T02:01:29;10.70;;;6.77;;
11541;SDS011;5827;49.482;7.716;2023-02-01T02:03:32;10.20;;;6.83;;
11541;SDS011;5827;49.482;7.716;2023-02-01T02:05:36;9.03;;;6.37;;
11541;SDS011;5827;49.482;7.716;2023-02-01T02:07:39;9.97;;;6.40;;
11541;SDS011;5827;49.482;7.716;2023-02-01T02:09:42;9.73;;;5.80;;
11541;SDS011;5827;49.482;7.716;2023-02-01T02:11:44;9.10;;;6.13;;
11541;SDS011;5827;49.482;7.716;2023-02-01T02:13:48;8.13;;;5.93;;
11541;SDS011;5827;49.482;7.716;2023-02-01T02:15:55;8.83;;;5.30;;
11541;SDS011;5827;49.482;7.716;2023-02-01T02:18:05;7.70;;;5.30;;
11541;SDS011;5827;49.482;7.716;2023-02-01T02:20:22;8.33;;;5.53;;
11541;SDS011;5827;49.482;7.716;2023-02-01T02:22:48;7.13;;;5.93;;
11541;SDS011;5827;49.482;7.716;2023-02-01T02:25:19;8.77;;;5.20;;
11541;SDS011;5827;49.482;7.716;2023-02-01T02:27:38;8.77;;;6.33;;
11541;SDS011;5827;49.482;7.716;2023-02-01T02:30:01;10.10;;;6.00;;
11541;SDS011;5827;49.482;7.716;2023-02-01T02:35:06;11.13;;;6.10;;
11541;SDS011;5827;49.482;7.716;2023-02-01T02:37:17;12.40;;;6.77;;
11541;SDS011;5827;49.482;7.716;2023-02-01T02:39:32;10.13;;;6.37;;
11541;SDS011;5827;49.482;7.716;2023-02-01T02:41:45;8.13;;;6.47;;
11541;SDS011;5827;49.482;7.716;2023-02-01T02:44:10;12.27;;;6.30;;
11541;SDS011;5827;49.482;7.716;2023-02-01T02:46:36;11.20;;;7.57;;
11541;SDS011;5827;49.482;7.716;2023-02-01T02:49:00;14.80;;;7.73;;
11541;SDS011;5827;49.482;7.716;2023-02-01T02:51:08;8.63;;;6.33;;
11541;SDS011;5827;49.482;7.716;2023-02-01T02:53:32;14.47;;;7.43;;
11541;SDS011;5827;49.482;7.716;2023-02-01T02:55:54;14.17;;;7.00;;
11541;SDS011;5827;49.482;7.716;2023-02-01T02:58:15;9.07;;;6.10;;
11541;SDS011;5827;49.482;7.716;2023-02-01T03:00:35;10.70;;;6.63;;
11541;SDS011;5827;49.482;7.716;2023-02-01T03:02:56;10.30;;;6.40;;
11541;SDS011;5827;49.482;7.716;2023-02-01T03:05:15;9.77;;;6.33;;
11541;SDS011;5827;49.482;7.716;2023-02-01T03:10:01;9.23;;;5.67;;
11541;SDS011;5827;49.482;7.716;2023-02-01T03:12:07;9.03;;;6.40;;
11541;SDS011;5827;49.482;7.716;2023-02-01T03:14:30;9.57;;;6.83;;
11541;SDS011;5827;49.482;7.716;2023-02-01T03:16:35;9.93;;;6.63;;
11541;SDS011;5827;49.482;7.716;2023-02-01T03:18:44;10.90;;;6.20;;
11541;SDS011;5827;49.482;7.716;2023-02-01T03:20:51;12.77;;;6.23;;
11541;SDS011;5827;49.482;7.716;2023-02-01T03:22:54;9.57;;;6.37;;
11541;SDS011;5827;49.482;7.716;2023-02-01T03:24:58;9.23;;;6.57;;
11541;SDS011;5827;49.482;7.716;2023-02-01T03:27:05;12.00;;;6.73;;
11541;SDS011;5827;49.482;7.716;2023-02-01T03:29:11;12.90;;;6.80;;
11541;SDS011;5827;49.482;7.716;2023-02-01T03:31:15;13.73;;;7.10;;
11541;SDS011;5827;49.482;7.716;2023-02-01T03:33:17;14.83;;;7.90;;
11541;SDS011;5827;49.482;7.716;2023-02-01T03:35:23;13.47;;;7.33;;
11541;SDS011;5827;49.482;7.716;2023-02-01T03:37:29;12.47;;;7.47;;
11541;SDS011;5827;49.482;7.716;2023-02-01T03:39:32;9.73;;;6.90;;
11541;SDS011;5827;49.482;7.716;2023-02-01T03:41:37;9.23;;;6.20;;
11541;SDS011;5827;49.482;7.716;2023-02-01T03:43:47;12.07;;;6.73;;
11541;SDS011;5827;49.482;7.716;2023-02-01T03:45:54;9.53;;;6.20;;
11541;SDS011;5827;49.482;7.716;2023-02-01T03:47:59;7.87;;;5.50;;
11541;SDS011;5827;49.482;7.716;2023-02-01T03:50:03;8.67;;;5.13;;
11541;SDS011;5827;49.482;7.716;2023-02-01T03:52:08;6.37;;;5.17;;
11541;SDS011;5827;49.482;7.716;2023-02-01T03:54:14;9.57;;;5.87;;
11541;SDS011;5827;49.482;7.716;2023-02-01T03:56:18;7.50;;;5.37;;
11541;SDS011;5827;49.482;7.716;2023-02-01T03:58:22;11.17;;;5.63;;
11541;SDS011;5827;49.482;7.716;2023-02-01T04:00:26;10.20;;;6.27;;
11541;SDS011;5827;49.482;7.716;2023-02-01T04:02:28;10.83;;;5.80;;
11541;SDS011;5827;49.482;7.716;2023-02-01T04:04:29;9.93;;;5.40;;
11541;SDS011;5827;49.482;7.716;2023-02-01T04:06:31;9.90;;;5.63;;
11541;SDS011;5827;49.482;7.716;2023-02-01T04:08:33;9.43;;;5.67;;
11541;SDS011;5827;49.482;7.716;2023-02-01T04:10:35;12.63;;;6.07;;
11541;SDS011;5827;49.482;7.716;2023-02-01T04:12:36;11.83;;;6.17;;
11541;SDS011;5827;49.482;7.716;2023-02-01T04:14:38;11.70;;;6.83;;
11541;SDS011;5827;49.482;7.716;2023-02-01T04:16:40;8.17;;;5.50;;
11541;SDS011;5827;49.482;7.716;2023-02-01T04:18:42;9.73;;;6.17;;
11541;SDS011;5827;49.482;7.716;2023-02-01T04:20:43;14.17;;;6.53;;
11541;SDS011;5827;49.482;7.716;2023-02-01T04:22:45;13.27;;;6.43;;
11541;SDS011;5827;49.482;7.716;2023-02-01T04:24:47;11.53;;;6.20;;
11541;SDS011;5827;49.482;7.716;2023-02-01T04:26:49;12.90;;;6.77;;
11541;SDS011;5827;49.482;7.716;2023-02-01T04:28:50;10.90;;;6.10;;
11541;SDS011;5827;49.482;7.716;2023-02-01T04:30:52;10.87;;;5.50;;
11541;SDS011;5827;49.482;7.716;2023-02-01T04:32:55;9.80;;;5.90;;
11541;SDS011;5827;49.482;7.716;2023-02-01T04:34:57;7.70;;;5.53;;
11541;SDS011;5827;49.482;7.716;2023-02-01T04:36:58;10.40;;;6.23;;
11541;SDS011;5827;49.482;7.716;2023-02-01T04:38:59;8.03;;;5.63;;
11541;SDS011;5827;49.482;7.716;2023-02-01T04:41:01;9.10;;;5.10;;
11541;SDS011;5827;49.482;7.716;2023-02-01T04:43:03;10.20;;;5.37;;
11541;SDS011;5827;49.482;7.716;2023-02-01T04:45:05;8.17;;;5.13;;
11541;SDS011;5827;49.482;7.716;2023-02-01T04:47:08;10.33;;;5.40;;
11541;SDS011;5827;49.482;7.716;2023-02-01T04:49:12;10.47;;;6.03;;
11541;SDS011;5827;49.482;7.716;2023-02-01T04:51:14;12.50;;;6.00;;
11541;SDS011;5827;49.482;7.716;2023-02-01T04:53:18;10.70;;;7.13;;
11541;SDS011;5827;49.482;7.716;2023-02-01T04:55:19;13.97;;;7.00;;
11541;SDS011;5827;49.482;7.716;2023-02-01T04:57:21;12.67;;;6.67;;
11541;SDS011;5827;49.482;7.716;2023-02-01T04:59:22;18.80;;;8.50;;
11541;SDS011;5827;49.482;7.716;2023-02-01T05:01:24;12.53;;;6.73;;
11541;SDS011;5827;49.482;7.716;2023-02-01T05:03:25;12.27;;;6.57;;
11541;SDS011;5827;49.482;7.716;2023-02-01T05:05:28;8.00;;;6.20;;
11541;SDS011;5827;49.482;7.716;2023-02-01T05:07:30;8.73;;;5.43;;
11541;SDS011;5827;49.482;7.716;2023-02-01T05:09:32;8.10;;;5.27;;
11541;SDS011;5827;49.482;7.716;2023-02-01T05:11:33;9.53;;;6.10;;
11541;SDS011;5827;49.482;7.716;2023-02-01T05:13:52;8.37;;;4.20;;
11541;SDS011;5827;49.482;7.716;2023-02-01T05:15:53;9.07;;;4.83;;
11541;SDS011;5827;49.482;7.716;2023-02-01T05:17:55;7.10;;;4.50;;
11541;SDS011;5827;49.482;7.716;2023-02-01T05:19:56;6.83;;;4.20;;
11541;SDS011;5827;49.482;7.716;2023-02-01T05:21:59;8.57;;;5.07;;
11541;SDS011;5827;49.482;7.716;2023-02-01T05:24:01;7.87;;;4.53;;
11541;SDS011;5827;49.482;7.716;2023-02-01T05:26:13;7.33;;;5.20;;
11541;SDS011;5827;49.482;7.716;2023-02-01T05:28:14;8.70;;;5.20;;
11541;SDS011;5827;49.482;7.716;2023-02-01T05:30:16;7.00;;;5.57;;
11541;SDS011;5827;49.482;7.716;2023-02-01T05:32:18;12.67;;;5.97;;
11541;SDS011;5827;49.482;7.716;2023-02-01T05:34:19;14.13;;;6.60;;
11541;SDS011;5827;49.482;7.716;2023-02-01T05:36:21;13.53;;;6.57;;
11541;SDS011;5827;49.482;7.716;2023-02-01T05:38:24;12.97;;;7.43;;
11541;SDS011;5827;49.482;7.716;2023-02-01T05:40:26;12.43;;;7.33;;
11541;SDS011;5827;49.482;7.716;2023-02-01T05:42:27;14.43;;;8.07;;
11541;SDS011;5827;49.482;7.716;2023-02-01T05:44:29;14.03;;;7.63;;
11541;SDS011;5827;49.482;7.716;2023-02-01T05:46:30;12.97;;;8.23;;
11541;SDS011;5827;49.482;7.716;2023-02-01T05:48:32;13.13;;;7.73;;
11541;SDS011;5827;49.482;7.716;2023-02-01T05:50:34;11.93;;;7.40;;
11541;SDS011;5827;49.482;7.716;2023-02-01T05:52:35;10.30;;;7.17;;
11541;SDS011;5827;49.482;7.716;2023-02-01T05:54:38;14.23;;;7.67;;
11541;SDS011;5827;49.482;7.716;2023-02-01T05:56:40;13.03;;;7.20;;
11541;SDS011;5827;49.482;7.716;2023-02-01T05:58:41;12.70;;;6.57;;
11541;SDS011;5827;49.482;7.716;2023-02-01T06:00:43;14.03;;;7.50;;
11541;SDS011;5827;49.482;7.716;2023-02-01T06:02:44;13.73;;;6.83;;
11541;SDS011;5827;49.482;7.716;2023-02-01T06:04:48;11.67;;;7.47;;
11541;SDS011;5827;49.482;7.716;2023-02-01T06:06:50;12.93;;;7.20;;
11541;SDS011;5827;49.482;7.716;2023-02-01T06:08:51;11.60;;;7.13;;
11541;SDS011;5827;49.482;7.716;2023-02-01T06:10:58;15.60;;;6.70;;
11541;SDS011;5827;49.482;7.716;2023-02-01T06:13:00;11.70;;;6.90;;
11541;SDS011;5827;49.482;7.716;2023-02-01T06:15:03;12.13;;;6.87;;
11541;SDS011;5827;49.482;7.716;2023-02-01T06:17:05;11.03;;;6.70;;
11541;SDS011;5827;49.482;7.716;2023-02-01T06:19:06;10.07;;;6.30;;
11541;SDS011;5827;49.482;7.716;2023-02-01T06:21:08;10.53;;;6.47;;
11541;SDS011;5827;49.482;7.716;2023-02-01T06:23:10;10.70;;;5.63;;
11541;SDS011;5827;49.482;7.716;2023-02-01T06:25:12;13.03;;;6.03;;
11541;SDS011;5827;49.482;7.716;2023-02-01T06:27:14;14.00;;;7.70;;
11541;SDS011;5827;49.482;7.716;2023-02-01T06:29:16;9.17;;;5.30;;
11541;SDS011;5827;49.482;7.716;2023-02-01T06:31:17;13.93;;;6.70;;
11541;SDS011;5827;49.482;7.716;2023-02-01T06:33:19;19.53;;;9.17;;
11541;SDS011;5827;49.482;7.716;2023-02-01T06:35:21;12.53;;;6.93;;
11541;SDS011;5827;49.482;7.716;2023-02-01T06:37:22;8.37;;;6.20;;
11541;SDS011;5827;49.482;7.716;2023-02-01T06:39:24;14.50;;;7.03;;
11541;SDS011;5827;49.482;7.716;2023-02-01T06:41:27;14.83;;;9.03;;
11541;SDS011;5827;49.482;7.716;2023-02-01T06:43:30;16.60;;;10.37;;
11541;SDS011;5827;49.482;7.716;2023-02-01T06:45:33;15.67;;;6.57;;
11541;SDS011;5827;49.482;7.716;2023-02-01T06:47:34;12.73;;;6.73;;
11541;SDS011;5827;49.482;7.716;2023-02-01T06:49:36;13.30;;;6.53;;
11541;SDS011;5827;49.482;7.716;2023-02-01T06:51:37;17.13;;;7.43;;
11541;SDS011;5827;49.482;7.716;2023-02-01T06:53:39;14.33;;;7.77;;
11541;SDS011;5827;49.482;7.716;2023-02-01T06:55:40;13.30;;;7.57;;
11541;SDS011;5827;49.482;7.716;2023-02-01T06:57:42;16.93;;;8.37;;
11541;SDS011;5827;49.482;7.716;2023-02-01T06:59:44;14.70;;;7.53;;
11541;SDS011;5827;49.482;7.716;2023-02-01T07:01:46;11.67;;;8.20;;
11541;SDS011;5827;49.482;7.716;2023-02-01T07:03:48;18.43;;;7.13;;
11541;SDS011;5827;49.482;7.716;2023-02-01T07:05:54;14.87;;;7.20;;
11541;SDS011;5827;49.482;7.716;2023-02-01T07:07:56;10.57;;;6.10;;
11541;SDS011;5827;49.482;7.716;2023-02-01T07:09:58;12.93;;;6.67;;
11541;SDS011;5827;49.482;7.716;2023-02-01T07:11:59;9.57;;;5.70;;
11541;SDS011;5827;49.482;7.716;2023-02-01T07:14:01;10.73;;;6.37;;
11541;SDS011;5827;49.482;7.716;2023-02-01T07:16:05;8.63;;;5.67;;
11541;SDS011;5827;49.482;7.716;2023-02-01T07:18:08;9.23;;;5.77;;
11541;SDS011;5827;49.482;7.716;2023-02-01T07:20:10;7.10;;;5.03;;
11541;SDS011;5827;49.482;7.716;2023-02-01T07:22:12;11.67;;;5.93;;
11541;SDS011;5827;49.482;7.716;2023-02-01T07:24:13;11.50;;;6.43;;
11541;SDS011;5827;49.482;7.716;2023-02-01T07:26:15;10.00;;;6.37;;
11541;SDS011;5827;49.482;7.716;2023-02-01T07:28:17;13.10;;;6.23;;
11541;SDS011;5827;49.482;7.716;2023-02-01T07:30:18;12.90;;;7.27;;
11541;SDS011;5827;49.482;7.716;2023-02-01T07:32:21;14.50;;;6.83;;
11541;SDS011;5827;49.482;7.716;2023-02-01T07:34:23;14.30;;;7.40;;
11541;SDS011;5827;49.482;7.716;2023-02-01T07:36:25;15.50;;;7.83;;
11541;SDS011;5827;49.482;7.716;2023-02-01T07:38:26;18.40;;;8.63;;
11541;SDS011;5827;49.482;7.716;2023-02-01T07:40:28;21.63;;;8.13;;
11541;SDS011;5827;49.482;7.716;2023-02-01T07:42:30;16.20;;;8.00;;
11541;SDS011;5827;49.482;7.716;2023-02-01T07:44:32;17.53;;;7.13;;
11541;SDS011;5827;49.482;7.716;2023-02-01T07:46:33;16.37;;;7.33;;
11541;SDS011;5827;49.482;7.716;2023-02-01T07:48:37;15.83;;;8.00;;
11541;SDS011;5827;49.482;7.716;2023-02-01T07:50:39;14.57;;;7.60;;
11541;SDS011;5827;49.482;7.716;2023-02-01T07:52:40;14.30;;;7.33;;
11541;SDS011;5827;49.482;7.716;2023-02-01T07:54:42;18.77;;;8.07;;
11541;SDS011;5827;49.482;7.716;2023-02-01T07:56:44;17.90;;;7.50;;
11541;SDS011;5827;49.482;7.716;2023-02-01T07:58:46;16.43;;;6.97;;
11541;SDS011;5827;49.482;7.716;2023-02-01T08:00:49;18.93;;;7.23;;
11541;SDS011;5827;49.482;7.716;2023-02-01T08:03:08;17.13;;;7.47;;
11541;SDS011;5827;49.482;7.716;2023-02-01T08:05:11;18.10;;;7.33;;
11541;SDS011;5827;49.482;7.716;2023-02-01T08:07:12;18.80;;;7.37;;
11541;SDS011;5827;49.482;7.716;2023-02-01T08:09:14;14.60;;;6.90;;
11541;SDS011;5827;49.482;7.716;2023-02-01T08:11:16;14.53;;;7.50;;
11541;SDS011;5827;49.482;7.716;2023-02-01T08:13:18;16.87;;;7.10;;
11541;SDS011;5827;49.482;7.716;2023-02-01T08:15:19;16.57;;;6.80;;
11541;SDS011;5827;49.482;7.716;2023-02-01T08:17:21;16.47;;;6.97;;
11541;SDS011;5827;49.482;7.716;2023-02-01T08:19:23;19.67;;;6.90;;
11541;SDS011;5827;49.482;7.716;2023-02-01T08:21:26;12.33;;;6.03;;
11541;SDS011;5827;49.482;7.716;2023-02-01T08:23:36;15.17;;;7.13;;
11541;SDS011;5827;49.482;7.716;2023-02-01T08:25:39;16.70;;;7.03;;
11541;SDS011;5827;49.482;7.716;2023-02-01T08:27:40;18.60;;;7.03;;
11541;SDS011;5827;49.482;7.716;2023-02-01T08:29:42;18.63;;;8.53;;
11541;SDS011;5827;49.482;7.716;2023-02-01T08:31:44;17.20;;;6.80;;
11541;SDS011;5827;49.482;7.716;2023-02-01T08:33:47;18.63;;;7.03;;
11541;SDS011;5827;49.482;7.716;2023-02-01T08:35:50;18.20;;;6.50;;
11541;SDS011;5827;49.482;7.716;2023-02-01T08:37:53;20.13;;;6.80;;
11541;SDS011;5827;49.482;7.716;2023-02-01T08:39:55;19.07;;;6.63;;
11541;SDS011;5827;49.482;7.716;2023-02-01T08:41:56;14.30;;;6.40;;
11541;SDS011;5827;49.482;7.716;2023-02-01T08:44:15;13.90;;;6.20;;
11541;SDS011;5827;49.482;7.716;2023-02-01T08:46:17;15.07;;;6.17;;
11541;SDS011;5827;49.482;7.716;2023-02-01T08:48:18;19.47;;;5.87;;
11541;SDS011;5827;49.482;7.716;2023-02-01T08:50:21;15.40;;;5.53;;
11541;SDS011;5827;49.482;7.716;2023-02-01T08:52:23;16.40;;;5.47;;
11541;SDS011;5827;49.482;7.716;2023-02-01T08:54:26;16.20;;;5.57;;
11541;SDS011;5827;49.482;7.716;2023-02-01T08:56:27;13.37;;;5.00;;
11541;SDS011;5827;49.482;7.716;2023-02-01T08:58:29;15.37;;;4.90;;
11541;SDS011;5827;49.482;7.716;2023-02-01T09:00:30;13.33;;;5.33;;
11541;SDS011;5827;49.482;7.716;2023-02-01T09:02:32;13.00;;;5.53;;
11541;SDS011;5827;49.482;7.716;2023-02-01T09:04:34;12.53;;;4.83;;
11541;SDS011;5827;49.482;7.716;2023-02-01T09:06:35;14.00;;;5.00;;
11541;SDS011;5827;49.482;7.716;2023-02-01T09:08:38;9.50;;;5.03;;
11541;SDS011;5827;49.482;7.716;2023-02-01T09:10:41;15.70;;;4.70;;
11541;SDS011;5827;49.482;7.716;2023-02-01T09:12:43;15.80;;;5.00;;
11541;SDS011;5827;49.482;7.716;2023-02-01T09:14:45;18.07;;;6.67;;
11541;SDS011;5827;49.482;7.716;2023-02-01T09:16:46;18.70;;;5.03;;
11541;SDS011;5827;49.482;7.716;2023-02-01T09:18:48;18.93;;;5.27;;
11541;SDS011;5827;49.482;7.716;2023-02-01T09:20:50;16.50;;;5.67;;
11541;SDS011;5827;49.482;7.716;2023-02-01T09:22:51;16.97;;;4.83;;
11541;SDS011;5827;49.482;7.716;2023-02-01T09:24:53;19.10;;;4.87;;
11541;SDS011;5827;49.482;7.716;2023-02-01T09:26:56;22.30;;;5.23;;
11541;SDS011;5827;49.482;7.716;2023-02-01T09:28:57;18.13;;;5.20;;
11541;SDS011;5827;49.482;7.716;2023-02-01T09:30:59;14.60;;;4.87;;
11541;SDS011;5827;49.482;7.716;2023-02-01T09:33:03;14.53;;;4.70;;
11541;SDS011;5827;49.482;7.716;2023-02-01T09:35:05;16.23;;;5.23;;
11541;SDS011;5827;49.482;7.716;2023-02-01T09:37:07;9.97;;;4.53;;
11541;SDS011;5827;49.482;7.716;2023-02-01T09:39:09;20.27;;;4.67;;
11541;SDS011;5827;49.482;7.716;2023-02-01T09:41:16;18.30;;;5.17;;
11541;SDS011;5827;49.482;7.716;2023-02-01T09:43:36;16.53;;;5.43;;
11541;SDS011;5827;49.482;7.716;2023-02-01T09:45:44;19.73;;;5.17;;
11541;SDS011;5827;49.482;7.716;2023-02-01T09:47:53;12.23;;;4.40;;
11541;SDS011;5827;49.482;7.716;2023-02-01T09:49:59;18.70;;;5.47;;
11541;SDS011;5827;49.482;7.716;2023-02-01T09:52:04;17.30;;;5.10;;
11541;SDS011;5827;49.482;7.716;2023-02-01T09:54:09;14.97;;;4.80;;
11541;SDS011;5827;49.482;7.716;2023-02-01T09:56:18;19.33;;;4.83;;
11541;SDS011;5827;49.482;7.716;2023-02-01T09:58:24;20.97;;;5.17;;
11541;SDS011;5827;49.482;7.716;2023-02-01T10:00:31;14.47;;;5.13;;
11541;SDS011;5827;49.482;7.716;2023-02-01T10:02:36;16.43;;;5.27;;
11541;SDS011;5827;49.482;7.716;2023-02-01T10:04:40;21.50;;;5.87;;
11541;SDS011;5827;49.482;7.716;2023-02-01T10:06:54;20.10;;;5.70;;
11541;SDS011;5827;49.482;7.716;2023-02-01T10:09:14;18.33;;;4.70;;
11541;SDS011;5827;49.482;7.716;2023-02-01T10:11:23;16.53;;;4.90;;
11541;SDS011;5827;49.482;7.716;2023-02-01T10:13:50;18.27;;;4.63;;
11541;SDS011;5827;49.482;7.716;2023-02-01T10:16:07;14.50;;;4.93;;
11541;SDS011;5827;49.482;7.716;2023-02-01T10:18:23;14.97;;;4.97;;
11541;SDS011;5827;49.482;7.716;2023-02-01T10:20:36;18.57;;;4.90;;
11541;SDS011;5827;49.482;7.716;2023-02-01T10:22:51;14.77;;;4.40;;
11541;SDS011;5827;49.482;7.716;2023-02-01T10:25:04;16.00;;;4.47;;
11541;SDS011;5827;49.482;7.716;2023-02-01T10:27:16;12.37;;;4.57;;
11541;SDS011;5827;49.482;7.716;2023-02-01T10:29:21;18.13;;;4.80;;
11541;SDS011;5827;49.482;7.716;2023-02-01T10:31:28;13.20;;;3.80;;
11541;SDS011;5827;49.482;7.716;2023-02-01T10:33:33;15.70;;;4.73;;
11541;SDS011;5827;49.482;7.716;2023-02-01T10:35:38;16.70;;;5.03;;
11541;SDS011;5827;49.482;7.716;2023-02-01T10:37:42;18.53;;;5.20;;
11541;SDS011;5827;49.482;7.716;2023-02-01T10:39:45;15.10;;;5.20;;
11541;SDS011;5827;49.482;7.716;2023-02-01T10:41:48;16.40;;;5.03;;
11541;SDS011;5827;49.482;7.716;2023-02-01T10:43:50;11.37;;;4.27;;
11541;SDS011;5827;49.482;7.716;2023-02-01T10:45:55;15.80;;;4.37;;
11541;SDS011;5827;49.482;7.716;2023-02-01T10:47:59;15.63;;;4.70;;
11541;SDS011;5827;49.482;7.716;2023-02-01T10:50:08;13.80;;;4.53;;
11541;SDS011;5827;49.482;7.716;2023-02-01T10:52:17;17.47;;;5.70;;
11541;SDS011;5827;49.482;7.716;2023-02-01T10:54:31;20.57;;;6.63;;
11541;SDS011;5827;49.482;7.716;2023-02-01T10:56:34;18.23;;;5.43;;
11541;SDS011;5827;49.482;7.716;2023-02-01T10:58:43;18.77;;;4.87;;
11541;SDS011;5827;49.482;7.716;2023-02-01T11:00:47;17.90;;;5.53;;
11541;SDS011;5827;49.482;7.716;2023-02-01T11:02:53;17.63;;;4.23;;
11541;SDS011;5827;49.482;7.716;2023-02-01T11:05:01;15.87;;;3.83;;
11541;SDS011;5827;49.482;7.716;2023-02-01T11:07:06;17.83;;;4.90;;
11541;SDS011;5827;49.482;7.716;2023-02-01T11:09:16;9.90;;;3.87;;
11541;SDS011;5827;49.482;7.716;2023-02-01T11:11:21;12.47;;;4.10;;
11541;SDS011;5827;49.482;7.716;2023-02-01T11:13:27;19.03;;;4.93;;
11541;SDS011;5827;49.482;7.716;2023-02-01T11:15:31;16.67;;;4.00;;
11541;SDS011;5827;49.482;7.716;2023-02-01T11:17:34;17.43;;;4.53;;
11541;SDS011;5827;49.482;7.716;2023-02-01T11:19:42;15.17;;;4.47;;
11541;SDS011;5827;49.482;7.716;2023-02-01T11:21:46;13.70;;;3.87;;
11541;SDS011;5827;49.482;7.716;2023-02-01T11:23:51;19.67;;;4.57;;
11541;SDS011;5827;49.482;7.716;2023-02-01T11:25:53;15.40;;;3.97;;
11541;SDS011;5827;49.482;7.716;2023-02-01T11:27:57;13.67;;;4.50;;
11541;SDS011;5827;49.482;7.716;2023-02-01T11:29:59;16.00;;;4.23;;
11541;SDS011;5827;49.482;7.716;2023-02-01T11:32:04;12.40;;;3.83;;
11541;SDS011;5827;49.482;7.716;2023-02-01T11:34:06;17.80;;;4.33;;
11541;SDS011;5827;49.482;7.716;2023-02-01T11:36:10;16.10;;;4.43;;
11541;SDS011;5827;49.482;7.716;2023-02-01T11:38:25;13.00;;;3.80;;
11541;SDS011;5827;49.482;7.716;2023-02-01T11:40:30;16.07;;;4.90;;
11541;SDS011;5827;49.482;7.716;2023-02-01T11:42:36;14.10;;;3.90;;
11541;SDS011;5827;49.482;7.716;2023-02-01T11:45:13;19.93;;;4.40;;
11541;SDS011;5827;49.482;7.716;2023-02-01T11:47:21;16.87;;;4.80;;
11541;SDS011;5827;49.482;7.716;2023-02-01T11:49:25;14.30;;;4.53;;
11541;SDS011;5827;49.482;7.716;2023-02-01T11:51:32;19.23;;;4.50;;
11541;SDS011;5827;49.482;7.716;2023-02-01T11:53:46;13.23;;;3.53;;
11541;SDS011;5827;49.482;7.716;2023-02-01T11:56:05;16.97;;;4.10;;
11541;SDS011;5827;49.482;7.716;2023-02-01T11:58:20;13.53;;;4.17;;
11541;SDS011;5827;49.482;7.716;2023-02-01T12:00:54;19.10;;;5.17;;
11541;SDS011;5827;49.482;7.716;2023-02-01T12:03:19;17.13;;;4.30;;
11541;SDS011;5827;49.482;7.716;2023-02-01T12:05:41;12.20;;;3.73;;
11541;SDS011;5827;49.482;7.716;2023-02-01T12:07:55;18.67;;;4.50;;
11541;SDS011;5827;49.482;7.716;2023-02-01T12:10:18;17.80;;;4.70;;
11541;SDS011;5827;49.482;7.716;2023-02-01T12:12:31;16.97;;;3.97;;
11541;SDS011;5827;49.482;7.716;2023-02-01T12:14:45;12.90;;;4.03;;
11541;SDS011;5827;49.482;7.716;2023-02-01T12:19:46;18.63;;;4.00;;
11541;SDS011;5827;49.482;7.716;2023-02-01T12:22:06;11.97;;;3.90;;
11541;SDS011;5827;49.482;7.716;2023-02-01T12:27:00;15.03;;;4.33;;
11541;SDS011;5827;49.482;7.716;2023-02-01T12:29:19;13.87;;;4.20;;
11541;SDS011;5827;49.482;7.716;2023-02-01T12:31:30;16.63;;;3.77;;
11541;SDS011;5827;49.482;7.716;2023-02-01T12:33:52;14.23;;;4.13;;
11541;SDS011;5827;49.482;7.716;2023-02-01T12:36:07;9.90;;;4.00;;
11541;SDS011;5827;49.482;7.716;2023-02-01T12:38:19;16.90;;;4.70;;
11541;SDS011;5827;49.482;7.716;2023-02-01T12:40:34;18.47;;;4.37;;
11541;SDS011;5827;49.482;7.716;2023-02-01T12:42:47;13.97;;;3.83;;
11541;SDS011;5827;49.482;7.716;2023-02-01T12:44:55;13.40;;;4.10;;
11541;SDS011;5827;49.482;7.716;2023-02-01T12:47:03;14.10;;;3.70;;
11541;SDS011;5827;49.482;7.716;2023-02-01T12:49:11;12.67;;;4.27;;
11541;SDS011;5827;49.482;7.716;2023-02-01T12:51:18;11.90;;;3.97;;
11541;SDS011;5827;49.482;7.716;2023-02-01T12:53:23;10.17;;;3.50;;